This is the latest recevied weather packets stored in our database for station/object K9ABJ. If no packets are shown the sender has not sent any weather packets the latest 10 day(s).
| Time | Temp. | Humidity | Pressure | Rain* | Wind** | Luminosity | Snow |
|---|---|---|---|---|---|---|---|
| 1787949043 | 27.22° C | 49% | 1020.4 hPa | 0 mm | - | 110 W/m² | - |
| 1787948739 | 27.22° C | 48% | 1020.6 hPa | 0 mm | - | 141 W/m² | - |
| 1787948434 | 27.22° C | 50% | 1020.6 hPa | 0 mm | - | 154 W/m² | - |
| 1787948130 | 27.78° C | 50% | 1020.6 hPa | 0 mm | - | 273 W/m² | - |
| 1787947829 | 26.67° C | 50% | 1020.4 hPa | 0 mm | - | 330 W/m² | - |
| 1787947527 | 27.78° C | 49% | 1020.6 hPa | 0 mm | - | 570 W/m² | - |
| 1787947223 | 26.11° C | 51% | 1020.5 hPa | 0 mm | - | 170 W/m² | - |
| 1787946922 | 27.78° C | 49% | 1020.6 hPa | 0 mm | - | 385 W/m² | - |
| 1787946620 | 27.22° C | 48% | 1020.4 hPa | 0 mm | - | 823 W/m² | - |
| 1787946316 | 27.78° C | 53% | 1020.6 hPa | 0 mm | - | 880 W/m² | - |
| 1787946015 | 29.44° C | 47% | 1020.4 hPa | 0 mm | - | 312 W/m² | - |
| 1787945715 | 27.78° C | 47% | 1020.7 hPa | 0 mm | - | 480 W/m² | - |
| 1787945410 | 26.67° C | 49% | 1020.7 hPa | 0 mm | - | 299 W/m² | - |
| 1787945106 | 28.89° C | 46% | 1020.7 hPa | 0 mm | - | 301 W/m² | - |
| 1787944803 | 27.78° C | 47% | 1020.7 hPa | 0 mm | - | 306 W/m² | - |
| 1787944498 | 28.89° C | 45% | 1020.8 hPa | 0 mm | - | 322 W/m² | - |
| 1787944194 | 30.56° C | 47% | 1020.8 hPa | 0 mm | - | 363 W/m² | - |
| 1787943893 | 27.78° C | 55% | 1020.7 hPa | 0 mm | - | 615 W/m² | - |
| 1787943588 | 30° C | 47% | 1020.9 hPa | 0 mm | - | 777 W/m² | - |
| 1787943283 | 28.89° C | 49% | 1020.9 hPa | 0 mm | - | 768 W/m² | - |
| 1787942983 | 26.11° C | 51% | 1021 hPa | 0 mm | - | 774 W/m² | - |
| 1787942679 | 26.67° C | 52% | 1020.9 hPa | 0 mm | - | 743 W/m² | - |
| 1787942378 | 28.33° C | 50% | 1021.1 hPa | 0 mm | - | 686 W/m² | - |
| 1787942073 | 30.56° C | 49% | 1021.1 hPa | 0 mm | - | 730 W/m² | - |
| 1787941769 | 27.78° C | 52% | 1021 hPa | 0 mm | - | 751 W/m² | - |
* Rain latest hour (hover to see other rain measurements)
** Current wind speed in m/s (hover to see current wind gust speed)